sensor_id;sensor_type;location;lat;lon;timestamp;temperature;humidity
40828;DHT22;26549;50.918;5.338;2022-11-11T00:01:00;11.20;99.90
40828;DHT22;26549;50.918;5.338;2022-11-11T00:03:26;11.20;99.90
40828;DHT22;26549;50.918;5.338;2022-11-11T00:05:52;11.20;99.90
40828;DHT22;26549;50.918;5.338;2022-11-11T00:08:17;11.20;99.90
40828;DHT22;26549;50.918;5.338;2022-11-11T00:10:43;11.20;99.90
40828;DHT22;26549;50.918;5.338;2022-11-11T00:13:10;11.20;99.90
40828;DHT22;26549;50.918;5.338;2022-11-11T00:15:37;11.00;99.90
40828;DHT22;26549;50.918;5.338;2022-11-11T00:18:04;10.90;99.90
40828;DHT22;26549;50.918;5.338;2022-11-11T00:20:48;10.90;99.90
40828;DHT22;26549;50.918;5.338;2022-11-11T00:23:33;11.00;99.90
40828;DHT22;26549;50.918;5.338;2022-11-11T00:26:17;10.90;99.90
40828;DHT22;26549;50.918;5.338;2022-11-11T00:28:43;11.00;99.90
40828;DHT22;26549;50.918;5.338;2022-11-11T00:31:12;10.90;99.90
40828;DHT22;26549;50.918;5.338;2022-11-11T00:33:38;10.90;99.90
40828;DHT22;26549;50.918;5.338;2022-11-11T00:36:05;11.00;99.90
40828;DHT22;26549;50.918;5.338;2022-11-11T00:38:31;11.00;99.90
40828;DHT22;26549;50.918;5.338;2022-11-11T00:41:17;10.90;99.90
40828;DHT22;26549;50.918;5.338;2022-11-11T00:43:44;10.80;99.90
40828;DHT22;26549;50.918;5.338;2022-11-11T00:46:11;10.80;99.90
40828;DHT22;26549;50.918;5.338;2022-11-11T00:48:57;10.70;99.90
40828;DHT22;26549;50.918;5.338;2022-11-11T00:51:41;10.70;99.90
40828;DHT22;26549;50.918;5.338;2022-11-11T00:54:07;10.90;99.90
40828;DHT22;26549;50.918;5.338;2022-11-11T00:56:34;10.80;99.90
40828;DHT22;26549;50.918;5.338;2022-11-11T00:59:04;10.70;99.90
40828;DHT22;26549;50.918;5.338;2022-11-11T01:01:31;10.70;99.90
40828;DHT22;26549;50.918;5.338;2022-11-11T01:03:57;10.80;99.90
40828;DHT22;26549;50.918;5.338;2022-11-11T01:06:24;10.60;99.90
40828;DHT22;26549;50.918;5.338;2022-11-11T01:08:50;10.60;99.90
40828;DHT22;26549;50.918;5.338;2022-11-11T01:11:19;10.60;99.90
40828;DHT22;26549;50.918;5.338;2022-11-11T01:13:45;10.70;99.90
40828;DHT22;26549;50.918;5.338;2022-11-11T01:16:18;10.70;99.90
40828;DHT22;26549;50.918;5.338;2022-11-11T01:18:44;10.70;99.90
40828;DHT22;26549;50.918;5.338;2022-11-11T01:21:10;10.60;99.90
40828;DHT22;26549;50.918;5.338;2022-11-11T01:23:38;10.60;99.90
40828;DHT22;26549;50.918;5.338;2022-11-11T01:28:39;10.60;99.90
40828;DHT22;26549;50.918;5.338;2022-11-11T01:31:08;10.60;99.90
40828;DHT22;26549;50.918;5.338;2022-11-11T01:33:34;10.40;99.90
40828;DHT22;26549;50.918;5.338;2022-11-11T01:38:35;10.40;99.90
40828;DHT22;26549;50.918;5.338;2022-11-11T01:41:02;10.50;99.90
40828;DHT22;26549;50.918;5.338;2022-11-11T01:43:48;10.60;99.90
40828;DHT22;26549;50.918;5.338;2022-11-11T01:46:26;10.60;99.90
40828;DHT22;26549;50.918;5.338;2022-11-11T01:48:57;10.50;99.90
40828;DHT22;26549;50.918;5.338;2022-11-11T01:51:45;10.50;99.90
40828;DHT22;26549;50.918;5.338;2022-11-11T01:54:20;10.60;99.90
40828;DHT22;26549;50.918;5.338;2022-11-11T01:56:50;10.40;99.90
40828;DHT22;26549;50.918;5.338;2022-11-11T01:59:18;10.50;99.90
40828;DHT22;26549;50.918;5.338;2022-11-11T02:01:44;10.50;99.90
40828;DHT22;26549;50.918;5.338;2022-11-11T02:04:12;10.40;99.90
40828;DHT22;26549;50.918;5.338;2022-11-11T02:07:03;10.50;99.90
40828;DHT22;26549;50.918;5.338;2022-11-11T02:09:30;10.50;99.90
40828;DHT22;26549;50.918;5.338;2022-11-11T02:11:58;10.40;99.90
40828;DHT22;26549;50.918;5.338;2022-11-11T02:14:46;10.40;99.90
40828;DHT22;26549;50.918;5.338;2022-11-11T02:17:14;10.40;99.90
40828;DHT22;26549;50.918;5.338;2022-11-11T02:19:43;10.40;99.90
40828;DHT22;26549;50.918;5.338;2022-11-11T02:22:13;10.40;99.90
40828;DHT22;26549;50.918;5.338;2022-11-11T02:24:42;10.40;99.90
40828;DHT22;26549;50.918;5.338;2022-11-11T02:27:11;10.40;99.90
40828;DHT22;26549;50.918;5.338;2022-11-11T02:29:39;10.40;99.90
40828;DHT22;26549;50.918;5.338;2022-11-11T02:32:05;10.50;99.90
40828;DHT22;26549;50.918;5.338;2022-11-11T02:34:33;10.40;99.90
40828;DHT22;26549;50.918;5.338;2022-11-11T02:37:00;10.40;99.90
40828;DHT22;26549;50.918;5.338;2022-11-11T02:39:27;10.40;99.90
40828;DHT22;26549;50.918;5.338;2022-11-11T02:41:53;10.40;99.90
40828;DHT22;26549;50.918;5.338;2022-11-11T02:44:26;10.40;99.90
40828;DHT22;26549;50.918;5.338;2022-11-11T02:46:52;10.30;99.90
40828;DHT22;26549;50.918;5.338;2022-11-11T02:49:19;10.30;99.90
40828;DHT22;26549;50.918;5.338;2022-11-11T02:51:45;10.30;99.90
40828;DHT22;26549;50.918;5.338;2022-11-11T02:54:13;10.20;99.90
40828;DHT22;26549;50.918;5.338;2022-11-11T02:56:38;10.20;99.90
40828;DHT22;26549;50.918;5.338;2022-11-11T02:59:23;10.20;99.90
40828;DHT22;26549;50.918;5.338;2022-11-11T03:01:48;10.10;99.90
40828;DHT22;26549;50.918;5.338;2022-11-11T03:04:15;10.20;99.90
40828;DHT22;26549;50.918;5.338;2022-11-11T03:06:41;10.10;99.90
40828;DHT22;26549;50.918;5.338;2022-11-11T03:09:06;10.00;99.90
40828;DHT22;26549;50.918;5.338;2022-11-11T03:11:32;10.00;99.90
40828;DHT22;26549;50.918;5.338;2022-11-11T03:14:02;9.90;99.90
40828;DHT22;26549;50.918;5.338;2022-11-11T03:16:28;9.90;99.90
40828;DHT22;26549;50.918;5.338;2022-11-11T03:19:12;9.90;99.90
40828;DHT22;26549;50.918;5.338;2022-11-11T03:21:38;9.90;99.90
40828;DHT22;26549;50.918;5.338;2022-11-11T03:24:04;9.80;99.90
40828;DHT22;26549;50.918;5.338;2022-11-11T03:26:30;9.80;99.90
40828;DHT22;26549;50.918;5.338;2022-11-11T03:28:56;9.80;99.90
40828;DHT22;26549;50.918;5.338;2022-11-11T03:31:22;9.80;99.90
40828;DHT22;26549;50.918;5.338;2022-11-11T03:33:48;9.80;99.90
40828;DHT22;26549;50.918;5.338;2022-11-11T03:36:13;9.80;99.90
40828;DHT22;26549;50.918;5.338;2022-11-11T03:38:39;9.90;99.90
40828;DHT22;26549;50.918;5.338;2022-11-11T03:41:05;9.80;99.90
40828;DHT22;26549;50.918;5.338;2022-11-11T03:43:32;9.90;99.90
40828;DHT22;26549;50.918;5.338;2022-11-11T03:46:00;9.90;99.90
40828;DHT22;26549;50.918;5.338;2022-11-11T03:48:28;9.80;99.90
40828;DHT22;26549;50.918;5.338;2022-11-11T03:50:54;9.80;99.90
40828;DHT22;26549;50.918;5.338;2022-11-11T03:53:20;9.90;99.90
40828;DHT22;26549;50.918;5.338;2022-11-11T03:55:47;9.90;99.90
40828;DHT22;26549;50.918;5.338;2022-11-11T03:58:14;9.90;99.90
40828;DHT22;26549;50.918;5.338;2022-11-11T04:00:41;10.00;99.90
40828;DHT22;26549;50.918;5.338;2022-11-11T04:03:09;9.90;99.90
40828;DHT22;26549;50.918;5.338;2022-11-11T04:05:54;9.90;99.90
40828;DHT22;26549;50.918;5.338;2022-11-11T04:08:38;9.90;99.90
40828;DHT22;26549;50.918;5.338;2022-11-11T04:13:59;9.80;99.90
40828;DHT22;26549;50.918;5.338;2022-11-11T04:16:44;9.70;99.90
40828;DHT22;26549;50.918;5.338;2022-11-11T04:19:10;9.70;99.90
40828;DHT22;26549;50.918;5.338;2022-11-11T04:21:54;9.70;99.90
40828;DHT22;26549;50.918;5.338;2022-11-11T04:24:20;9.80;99.90
40828;DHT22;26549;50.918;5.338;2022-11-11T04:27:10;9.70;99.90
40828;DHT22;26549;50.918;5.338;2022-11-11T04:29:38;9.70;99.90
40828;DHT22;26549;50.918;5.338;2022-11-11T04:32:09;9.70;99.90
40828;DHT22;26549;50.918;5.338;2022-11-11T04:35:06;9.60;99.90
40828;DHT22;26549;50.918;5.338;2022-11-11T04:37:34;9.70;99.90
40828;DHT22;26549;50.918;5.338;2022-11-11T04:40:00;9.70;99.90
40828;DHT22;26549;50.918;5.338;2022-11-11T04:42:44;9.60;99.90
40828;DHT22;26549;50.918;5.338;2022-11-11T04:45:12;9.60;99.90
40828;DHT22;26549;50.918;5.338;2022-11-11T04:48:07;9.50;99.90
40828;DHT22;26549;50.918;5.338;2022-11-11T04:50:35;9.50;99.90
40828;DHT22;26549;50.918;5.338;2022-11-11T04:53:03;9.60;99.90
40828;DHT22;26549;50.918;5.338;2022-11-11T04:55:29;9.60;99.90
40828;DHT22;26549;50.918;5.338;2022-11-11T04:58:14;9.70;99.90
40828;DHT22;26549;50.918;5.338;2022-11-11T05:00:39;9.60;99.90
40828;DHT22;26549;50.918;5.338;2022-11-11T05:03:05;9.70;99.90
40828;DHT22;26549;50.918;5.338;2022-11-11T05:08:33;9.60;99.90
40828;DHT22;26549;50.918;5.338;2022-11-11T05:11:18;9.50;99.90
40828;DHT22;26549;50.918;5.338;2022-11-11T05:13:44;9.50;99.90
40828;DHT22;26549;50.918;5.338;2022-11-11T05:16:32;9.50;99.90
40828;DHT22;26549;50.918;5.338;2022-11-11T05:19:16;9.40;99.90
40828;DHT22;26549;50.918;5.338;2022-11-11T05:24:33;9.60;99.90
40828;DHT22;26549;50.918;5.338;2022-11-11T05:27:18;9.50;99.90
40828;DHT22;26549;50.918;5.338;2022-11-11T05:29:45;9.50;99.90
40828;DHT22;26549;50.918;5.338;2022-11-11T05:32:15;9.60;99.90
40828;DHT22;26549;50.918;5.338;2022-11-11T05:34:41;9.50;99.90
40828;DHT22;26549;50.918;5.338;2022-11-11T05:37:07;9.40;99.90
40828;DHT22;26549;50.918;5.338;2022-11-11T05:39:33;9.40;99.90
40828;DHT22;26549;50.918;5.338;2022-11-11T05:41:59;9.40;99.90
40828;DHT22;26549;50.918;5.338;2022-11-11T05:44:24;9.40;99.90
40828;DHT22;26549;50.918;5.338;2022-11-11T05:46:50;9.40;99.90
40828;DHT22;26549;50.918;5.338;2022-11-11T05:49:16;9.60;99.90
40828;DHT22;26549;50.918;5.338;2022-11-11T05:51:43;9.40;99.90
40828;DHT22;26549;50.918;5.338;2022-11-11T05:54:08;9.50;99.90
40828;DHT22;26549;50.918;5.338;2022-11-11T05:56:34;9.50;99.90
40828;DHT22;26549;50.918;5.338;2022-11-11T05:59:00;9.50;99.90
40828;DHT22;26549;50.918;5.338;2022-11-11T06:01:26;9.50;99.90
40828;DHT22;26549;50.918;5.338;2022-11-11T06:03:51;9.40;99.90
40828;DHT22;26549;50.918;5.338;2022-11-11T06:06:17;9.50;99.90
40828;DHT22;26549;50.918;5.338;2022-11-11T06:08:43;9.50;99.90
40828;DHT22;26549;50.918;5.338;2022-11-11T06:11:09;9.60;99.90
40828;DHT22;26549;50.918;5.338;2022-11-11T06:13:35;9.60;99.90
40828;DHT22;26549;50.918;5.338;2022-11-11T06:16:01;9.60;99.90
40828;DHT22;26549;50.918;5.338;2022-11-11T06:18:27;9.50;99.90
40828;DHT22;26549;50.918;5.338;2022-11-11T06:20:54;9.50;99.90
40828;DHT22;26549;50.918;5.338;2022-11-11T06:23:19;9.40;99.90
40828;DHT22;26549;50.918;5.338;2022-11-11T06:25:45;9.50;99.90
40828;DHT22;26549;50.918;5.338;2022-11-11T06:28:29;9.40;99.90
40828;DHT22;26549;50.918;5.338;2022-11-11T06:30:55;9.40;99.90
40828;DHT22;26549;50.918;5.338;2022-11-11T06:33:21;9.50;99.90
40828;DHT22;26549;50.918;5.338;2022-11-11T06:35:47;9.40;99.90
40828;DHT22;26549;50.918;5.338;2022-11-11T06:38:13;9.50;99.90
40828;DHT22;26549;50.918;5.338;2022-11-11T06:40:41;9.50;99.90
40828;DHT22;26549;50.918;5.338;2022-11-11T06:43:06;9.50;99.90
40828;DHT22;26549;50.918;5.338;2022-11-11T06:45:32;9.50;99.90
40828;DHT22;26549;50.918;5.338;2022-11-11T06:47:59;9.60;99.90
40828;DHT22;26549;50.918;5.338;2022-11-11T06:50:25;9.50;99.90
40828;DHT22;26549;50.918;5.338;2022-11-11T06:52:51;9.50;99.90
40828;DHT22;26549;50.918;5.338;2022-11-11T06:55:17;9.60;99.90
40828;DHT22;26549;50.918;5.338;2022-11-11T06:57:43;9.60;99.90
40828;DHT22;26549;50.918;5.338;2022-11-11T07:00:09;9.60;99.90
40828;DHT22;26549;50.918;5.338;2022-11-11T07:02:35;9.60;99.90
40828;DHT22;26549;50.918;5.338;2022-11-11T07:05:01;9.70;99.90
40828;DHT22;26549;50.918;5.338;2022-11-11T07:07:27;9.70;99.90
40828;DHT22;26549;50.918;5.338;2022-11-11T07:10:21;9.70;99.90
40828;DHT22;26549;50.918;5.338;2022-11-11T07:12:47;9.70;99.90
40828;DHT22;26549;50.918;5.338;2022-11-11T07:15:13;9.80;99.90
40828;DHT22;26549;50.918;5.338;2022-11-11T07:17:39;9.80;99.90
40828;DHT22;26549;50.918;5.338;2022-11-11T07:20:06;9.90;99.90
40828;DHT22;26549;50.918;5.338;2022-11-11T07:22:35;9.90;99.90
40828;DHT22;26549;50.918;5.338;2022-11-11T07:25:01;9.90;99.90
40828;DHT22;26549;50.918;5.338;2022-11-11T07:27:27;10.00;99.90
40828;DHT22;26549;50.918;5.338;2022-11-11T07:29:53;10.00;99.90
40828;DHT22;26549;50.918;5.338;2022-11-11T07:32:19;10.00;99.90
40828;DHT22;26549;50.918;5.338;2022-11-11T07:34:45;10.00;99.90
40828;DHT22;26549;50.918;5.338;2022-11-11T07:37:11;10.00;99.90
40828;DHT22;26549;50.918;5.338;2022-11-11T07:39:37;10.10;99.90
40828;DHT22;26549;50.918;5.338;2022-11-11T07:42:03;10.00;99.90
40828;DHT22;26549;50.918;5.338;2022-11-11T07:44:29;10.00;99.90
40828;DHT22;26549;50.918;5.338;2022-11-11T07:46:55;10.20;99.90
40828;DHT22;26549;50.918;5.338;2022-11-11T07:49:21;10.20;99.90
40828;DHT22;26549;50.918;5.338;2022-11-11T07:51:46;10.20;99.90
40828;DHT22;26549;50.918;5.338;2022-11-11T07:54:12;10.20;99.90
40828;DHT22;26549;50.918;5.338;2022-11-11T07:56:38;10.30;99.90
40828;DHT22;26549;50.918;5.338;2022-11-11T07:59:03;10.40;99.90
40828;DHT22;26549;50.918;5.338;2022-11-11T08:01:29;10.40;99.90
40828;DHT22;26549;50.918;5.338;2022-11-11T08:03:55;10.40;99.90
40828;DHT22;26549;50.918;5.338;2022-11-11T08:06:21;10.50;99.90
40828;DHT22;26549;50.918;5.338;2022-11-11T08:08:50;10.50;99.90
40828;DHT22;26549;50.918;5.338;2022-11-11T08:11:19;10.60;99.90
40828;DHT22;26549;50.918;5.338;2022-11-11T08:14:04;10.60;99.90
40828;DHT22;26549;50.918;5.338;2022-11-11T08:16:30;10.60;99.90
40828;DHT22;26549;50.918;5.338;2022-11-11T08:18:56;10.70;99.90
40828;DHT22;26549;50.918;5.338;2022-11-11T08:21:23;10.60;99.90
40828;DHT22;26549;50.918;5.338;2022-11-11T08:23:49;10.70;99.90
40828;DHT22;26549;50.918;5.338;2022-11-11T08:26:16;10.70;99.90
40828;DHT22;26549;50.918;5.338;2022-11-11T08:28:43;10.70;99.90
40828;DHT22;26549;50.918;5.338;2022-11-11T08:31:09;10.80;99.90
40828;DHT22;26549;50.918;5.338;2022-11-11T08:33:36;10.90;99.90
40828;DHT22;26549;50.918;5.338;2022-11-11T08:36:03;11.00;99.90
40828;DHT22;26549;50.918;5.338;2022-11-11T08:38:30;11.00;99.90
40828;DHT22;26549;50.918;5.338;2022-11-11T08:41:00;11.00;99.90
40828;DHT22;26549;50.918;5.338;2022-11-11T08:43:27;11.00;99.90
40828;DHT22;26549;50.918;5.338;2022-11-11T08:45:59;11.10;99.90
40828;DHT22;26549;50.918;5.338;2022-11-11T08:48:25;11.20;99.90
40828;DHT22;26549;50.918;5.338;2022-11-11T08:50:52;11.30;99.90
40828;DHT22;26549;50.918;5.338;2022-11-11T08:53:19;11.40;99.90
40828;DHT22;26549;50.918;5.338;2022-11-11T08:55:45;11.50;99.90
40828;DHT22;26549;50.918;5.338;2022-11-11T08:58:12;11.50;99.90
40828;DHT22;26549;50.918;5.338;2022-11-11T09:00:38;11.70;99.90
40828;DHT22;26549;50.918;5.338;2022-11-11T09:03:06;11.70;99.90
40828;DHT22;26549;50.918;5.338;2022-11-11T09:05:32;11.70;99.90
40828;DHT22;26549;50.918;5.338;2022-11-11T09:08:03;11.80;99.90
40828;DHT22;26549;50.918;5.338;2022-11-11T09:10:31;11.90;99.90
40828;DHT22;26549;50.918;5.338;2022-11-11T09:12:58;11.90;99.90
40828;DHT22;26549;50.918;5.338;2022-11-11T09:15:24;12.00;99.90
40828;DHT22;26549;50.918;5.338;2022-11-11T09:17:51;12.00;99.90
40828;DHT22;26549;50.918;5.338;2022-11-11T09:20:17;12.00;99.90
40828;DHT22;26549;50.918;5.338;2022-11-11T09:22:47;12.10;99.90
40828;DHT22;26549;50.918;5.338;2022-11-11T09:25:14;12.20;99.90
40828;DHT22;26549;50.918;5.338;2022-11-11T09:27:40;12.20;99.90
40828;DHT22;26549;50.918;5.338;2022-11-11T09:30:08;12.30;99.90
40828;DHT22;26549;50.918;5.338;2022-11-11T09:32:34;12.40;99.90
40828;DHT22;26549;50.918;5.338;2022-11-11T09:35:02;12.50;99.90
40828;DHT22;26549;50.918;5.338;2022-11-11T09:37:28;12.60;99.90
40828;DHT22;26549;50.918;5.338;2022-11-11T09:39:54;12.60;99.90
40828;DHT22;26549;50.918;5.338;2022-11-11T09:42:32;12.60;99.90
40828;DHT22;26549;50.918;5.338;2022-11-11T09:45:22;12.70;99.90
40828;DHT22;26549;50.918;5.338;2022-11-11T09:50:41;12.80;99.90
40828;DHT22;26549;50.918;5.338;2022-11-11T09:56:05;13.00;99.90
40828;DHT22;26549;50.918;5.338;2022-11-11T09:58:50;13.10;99.90
40828;DHT22;26549;50.918;5.338;2022-11-11T10:01:26;13.20;99.90
40828;DHT22;26549;50.918;5.338;2022-11-11T10:04:03;13.30;99.90
40828;DHT22;26549;50.918;5.338;2022-11-11T10:06:32;13.40;99.90
40828;DHT22;26549;50.918;5.338;2022-11-11T10:09:23;13.50;99.90
40828;DHT22;26549;50.918;5.338;2022-11-11T10:14:43;13.60;99.90
40828;DHT22;26549;50.918;5.338;2022-11-11T10:17:34;13.70;99.90
40828;DHT22;26549;50.918;5.338;2022-11-11T10:22:41;13.90;99.90
40828;DHT22;26549;50.918;5.338;2022-11-11T10:25:20;13.80;99.90
40828;DHT22;26549;50.918;5.338;2022-11-11T10:27:50;13.90;99.90
40828;DHT22;26549;50.918;5.338;2022-11-11T10:30:29;13.80;99.90
40828;DHT22;26549;50.918;5.338;2022-11-11T10:35:44;13.90;99.90
40828;DHT22;26549;50.918;5.338;2022-11-11T10:38:34;14.10;99.90
40828;DHT22;26549;50.918;5.338;2022-11-11T10:41:18;14.10;99.90
40828;DHT22;26549;50.918;5.338;2022-11-11T10:43:45;14.20;99.90
40828;DHT22;26549;50.918;5.338;2022-11-11T10:46:15;14.20;99.90
40828;DHT22;26549;50.918;5.338;2022-11-11T10:49:06;14.40;99.90
40828;DHT22;26549;50.918;5.338;2022-11-11T10:51:51;14.50;99.90
40828;DHT22;26549;50.918;5.338;2022-11-11T10:54:25;14.60;99.90
40828;DHT22;26549;50.918;5.338;2022-11-11T10:56:59;14.60;99.90
40828;DHT22;26549;50.918;5.338;2022-11-11T10:59:43;14.60;99.90
40828;DHT22;26549;50.918;5.338;2022-11-11T11:02:18;14.70;99.90
40828;DHT22;26549;50.918;5.338;2022-11-11T11:04:51;14.90;99.90
40828;DHT22;26549;50.918;5.338;2022-11-11T11:07:25;14.90;99.90
40828;DHT22;26549;50.918;5.338;2022-11-11T11:10:00;14.90;99.90
40828;DHT22;26549;50.918;5.338;2022-11-11T11:12:44;15.00;99.90
40828;DHT22;26549;50.918;5.338;2022-11-11T11:15:17;15.00;99.90
40828;DHT22;26549;50.918;5.338;2022-11-11T11:18:00;15.00;99.90
40828;DHT22;26549;50.918;5.338;2022-11-11T11:20:27;14.90;99.90
40828;DHT22;26549;50.918;5.338;2022-11-11T11:22:55;15.00;99.90
40828;DHT22;26549;50.918;5.338;2022-11-11T11:25:25;15.10;99.90
40828;DHT22;26549;50.918;5.338;2022-11-11T11:27:52;15.10;99.90
40828;DHT22;26549;50.918;5.338;2022-11-11T11:30:28;15.20;99.90
40828;DHT22;26549;50.918;5.338;2022-11-11T11:33:03;15.10;99.90
40828;DHT22;26549;50.918;5.338;2022-11-11T11:35:40;15.10;99.90
40828;DHT22;26549;50.918;5.338;2022-11-11T11:38:09;15.20;99.90
40828;DHT22;26549;50.918;5.338;2022-11-11T11:40:55;15.30;99.90
40828;DHT22;26549;50.918;5.338;2022-11-11T11:43:35;15.40;99.90
40828;DHT22;26549;50.918;5.338;2022-11-11T11:46:27;15.40;99.90
40828;DHT22;26549;50.918;5.338;2022-11-11T11:51:51;15.40;99.90
40828;DHT22;26549;50.918;5.338;2022-11-11T11:54:40;15.40;99.90
40828;DHT22;26549;50.918;5.338;2022-11-11T11:57:40;15.50;99.90
40828;DHT22;26549;50.918;5.338;2022-11-11T12:05:45;15.60;99.90
40828;DHT22;26549;50.918;5.338;2022-11-11T12:08:32;15.60;99.90
40828;DHT22;26549;50.918;5.338;2022-11-11T12:11:12;15.60;99.90
40828;DHT22;26549;50.918;5.338;2022-11-11T12:16:39;15.70;99.90
40828;DHT22;26549;50.918;5.338;2022-11-11T12:24:59;15.70;99.90
40828;DHT22;26549;50.918;5.338;2022-11-11T12:30:22;15.90;99.90
40828;DHT22;26549;50.918;5.338;2022-11-11T12:36:05;15.80;99.90
40828;DHT22;26549;50.918;5.338;2022-11-11T12:44:02;16.00;99.90
40828;DHT22;26549;50.918;5.338;2022-11-11T12:52:16;16.00;99.90
40828;DHT22;26549;50.918;5.338;2022-11-11T12:55:08;16.00;99.90
40828;DHT22;26549;50.918;5.338;2022-11-11T13:00:27;16.10;99.90
40828;DHT22;26549;50.918;5.338;2022-11-11T13:05:58;16.10;99.90
40828;DHT22;26549;50.918;5.338;2022-11-11T13:16:24;16.20;99.90
40828;DHT22;26549;50.918;5.338;2022-11-11T13:18:52;16.20;99.90
40828;DHT22;26549;50.918;5.338;2022-11-11T13:21:24;16.20;99.90
40828;DHT22;26549;50.918;5.338;2022-11-11T13:23:51;16.30;99.90
40828;DHT22;26549;50.918;5.338;2022-11-11T13:26:35;16.40;99.90
40828;DHT22;26549;50.918;5.338;2022-11-11T13:29:31;16.40;99.90
40828;DHT22;26549;50.918;5.338;2022-11-11T13:32:02;16.40;99.90
40828;DHT22;26549;50.918;5.338;2022-11-11T13:34:31;16.40;99.90
40828;DHT22;26549;50.918;5.338;2022-11-11T13:37:03;16.40;99.90
40828;DHT22;26549;50.918;5.338;2022-11-11T13:39:38;16.40;99.90
40828;DHT22;26549;50.918;5.338;2022-11-11T13:42:12;16.40;99.90
40828;DHT22;26549;50.918;5.338;2022-11-11T13:44:53;16.30;99.90
40828;DHT22;26549;50.918;5.338;2022-11-11T13:47:24;16.40;99.90
40828;DHT22;26549;50.918;5.338;2022-11-11T13:52:23;16.30;99.90
40828;DHT22;26549;50.918;5.338;2022-11-11T13:55:06;16.20;99.90
40828;DHT22;26549;50.918;5.338;2022-11-11T13:57:33;16.20;99.90
40828;DHT22;26549;50.918;5.338;2022-11-11T14:00:24;16.20;99.90
40828;DHT22;26549;50.918;5.338;2022-11-11T14:05:46;16.10;99.90
40828;DHT22;26549;50.918;5.338;2022-11-11T14:19:27;16.10;99.90
40828;DHT22;26549;50.918;5.338;2022-11-11T14:24:43;16.00;99.90
40828;DHT22;26549;50.918;5.338;2022-11-11T14:29:48;16.00;99.90
40828;DHT22;26549;50.918;5.338;2022-11-11T14:35:18;15.90;99.90
40828;DHT22;26549;50.918;5.338;2022-11-11T14:40:31;15.80;99.90
40828;DHT22;26549;50.918;5.338;2022-11-11T14:42:59;15.80;99.90
40828;DHT22;26549;50.918;5.338;2022-11-11T14:47:57;15.70;99.90
40828;DHT22;26549;50.918;5.338;2022-11-11T14:53:11;15.60;99.90
40828;DHT22;26549;50.918;5.338;2022-11-11T14:55:39;15.60;99.90
40828;DHT22;26549;50.918;5.338;2022-11-11T14:58:30;15.60;99.90
40828;DHT22;26549;50.918;5.338;2022-11-11T15:01:12;15.50;99.90
40828;DHT22;26549;50.918;5.338;2022-11-11T15:03:44;15.40;99.90
40828;DHT22;26549;50.918;5.338;2022-11-11T15:06:18;15.40;99.90
40828;DHT22;26549;50.918;5.338;2022-11-11T15:11:57;15.20;99.90
40828;DHT22;26549;50.918;5.338;2022-11-11T15:14:31;15.10;99.90
40828;DHT22;26549;50.918;5.338;2022-11-11T15:17:25;15.10;99.90
40828;DHT22;26549;50.918;5.338;2022-11-11T15:25:55;14.90;99.90
40828;DHT22;26549;50.918;5.338;2022-11-11T15:37:04;14.40;99.90
40828;DHT22;26549;50.918;5.338;2022-11-11T15:39:46;14.30;99.90
40828;DHT22;26549;50.918;5.338;2022-11-11T15:42:32;14.20;99.90
40828;DHT22;26549;50.918;5.338;2022-11-11T15:45:01;14.10;99.90
40828;DHT22;26549;50.918;5.338;2022-11-11T15:47:29;14.00;99.90
40828;DHT22;26549;50.918;5.338;2022-11-11T15:50:00;13.90;99.90
40828;DHT22;26549;50.918;5.338;2022-11-11T15:52:34;13.90;99.90
40828;DHT22;26549;50.918;5.338;2022-11-11T15:55:19;13.80;99.90
40828;DHT22;26549;50.918;5.338;2022-11-11T15:57:46;13.80;99.90
40828;DHT22;26549;50.918;5.338;2022-11-11T16:00:32;13.70;99.90
40828;DHT22;26549;50.918;5.338;2022-11-11T16:02:58;13.70;99.90
40828;DHT22;26549;50.918;5.338;2022-11-11T16:05:25;13.60;99.90
40828;DHT22;26549;50.918;5.338;2022-11-11T16:07:54;13.50;99.90
40828;DHT22;26549;50.918;5.338;2022-11-11T16:10:40;13.50;99.90
40828;DHT22;26549;50.918;5.338;2022-11-11T16:13:25;13.50;99.90
40828;DHT22;26549;50.918;5.338;2022-11-11T16:16:34;13.40;99.90
40828;DHT22;26549;50.918;5.338;2022-11-11T16:18:56;13.30;99.90
40828;DHT22;26549;50.918;5.338;2022-11-11T16:21:33;13.30;99.90
40828;DHT22;26549;50.918;5.338;2022-11-11T16:24:02;13.20;99.90
40828;DHT22;26549;50.918;5.338;2022-11-11T16:26:32;13.10;99.90
40828;DHT22;26549;50.918;5.338;2022-11-11T16:28:59;12.90;99.90
40828;DHT22;26549;50.918;5.338;2022-11-11T16:36:59;12.80;99.90
40828;DHT22;26549;50.918;5.338;2022-11-11T16:39:27;12.60;99.90
40828;DHT22;26549;50.918;5.338;2022-11-11T16:41:54;12.60;99.90
40828;DHT22;26549;50.918;5.338;2022-11-11T16:44:57;12.60;99.90
40828;DHT22;26549;50.918;5.338;2022-11-11T16:50:17;12.40;99.90
40828;DHT22;26549;50.918;5.338;2022-11-11T16:52:59;12.40;99.90
40828;DHT22;26549;50.918;5.338;2022-11-11T16:55:30;12.30;99.90
40828;DHT22;26549;50.918;5.338;2022-11-11T16:58:09;12.30;99.90
40828;DHT22;26549;50.918;5.338;2022-11-11T17:00:36;12.30;99.90
40828;DHT22;26549;50.918;5.338;2022-11-11T17:05:55;12.10;99.90
40828;DHT22;26549;50.918;5.338;2022-11-11T17:08:34;12.10;99.90
40828;DHT22;26549;50.918;5.338;2022-11-11T17:11:05;12.00;99.90
40828;DHT22;26549;50.918;5.338;2022-11-11T17:13:33;12.00;99.90
40828;DHT22;26549;50.918;5.338;2022-11-11T17:16:01;12.00;99.90
40828;DHT22;26549;50.918;5.338;2022-11-11T17:18:36;11.80;99.90
40828;DHT22;26549;50.918;5.338;2022-11-11T17:21:03;11.80;99.90
40828;DHT22;26549;50.918;5.338;2022-11-11T17:23:29;11.80;99.90
40828;DHT22;26549;50.918;5.338;2022-11-11T17:25:56;11.80;99.90
40828;DHT22;26549;50.918;5.338;2022-11-11T17:28:22;11.80;99.90
40828;DHT22;26549;50.918;5.338;2022-11-11T17:30:48;11.80;99.90
40828;DHT22;26549;50.918;5.338;2022-11-11T17:33:14;11.70;99.90
40828;DHT22;26549;50.918;5.338;2022-11-11T17:35:49;11.80;99.90
40828;DHT22;26549;50.918;5.338;2022-11-11T17:38:14;11.70;99.90
40828;DHT22;26549;50.918;5.338;2022-11-11T17:40:46;11.60;99.90
40828;DHT22;26549;50.918;5.338;2022-11-11T17:43:13;11.60;99.90
40828;DHT22;26549;50.918;5.338;2022-11-11T17:45:39;11.50;99.90
40828;DHT22;26549;50.918;5.338;2022-11-11T17:48:05;11.60;99.90
40828;DHT22;26549;50.918;5.338;2022-11-11T17:50:31;11.50;99.90
40828;DHT22;26549;50.918;5.338;2022-11-11T17:52:57;11.50;99.90
40828;DHT22;26549;50.918;5.338;2022-11-11T17:55:23;11.50;99.90
40828;DHT22;26549;50.918;5.338;2022-11-11T17:57:49;11.50;99.90
40828;DHT22;26549;50.918;5.338;2022-11-11T18:00:16;11.40;99.90
40828;DHT22;26549;50.918;5.338;2022-11-11T18:02:42;11.40;99.90
40828;DHT22;26549;50.918;5.338;2022-11-11T18:05:09;11.40;99.90
40828;DHT22;26549;50.918;5.338;2022-11-11T18:07:35;11.40;99.90
40828;DHT22;26549;50.918;5.338;2022-11-11T18:10:01;11.40;99.90
40828;DHT22;26549;50.918;5.338;2022-11-11T18:12:28;11.30;99.90
40828;DHT22;26549;50.918;5.338;2022-11-11T18:14:54;11.40;99.90
40828;DHT22;26549;50.918;5.338;2022-11-11T18:17:20;11.30;99.90